Time;durP1;ratioP1;P1;durP2;ratioP2;P2;SDS_P1;SDS_P2;PMS_P1;PMS_P2;Temp;Humidity;BMP_temperature;BMP_pressure;BME280_temperature;BME280_humidity;BME280_pressure;Samples;Min_cycle;Max_cycle;Signal;HPM_P1;HPM_P2
2021/07/18 00:00:36;;;;;;;4.90;4.40;;;21.10;1.00;;;;;;4976948;28;20610;-78
2021/07/18 00:03:03;;;;;;;5.80;3.83;;;21.10;1.00;;;;;;4961244;28;20464;-78
2021/07/18 00:05:30;;;;;;;5.43;3.83;;;21.00;1.00;;;;;;4963134;28;20438;-78
2021/07/18 00:07:57;;;;;;;6.87;4.23;;;21.00;1.00;;;;;;4961312;28;20515;-77
2021/07/18 00:10:27;;;;;;;4.83;3.80;;;20.90;1.00;;;;;;4961141;28;20478;-78
2021/07/18 00:12:55;;;;;;;6.33;3.63;;;20.90;1.00;;;;;;4958228;28;20556;-77
2021/07/18 00:15:21;;;;;;;4.60;3.97;;;20.90;1.00;;;;;;4960087;28;20450;-78
2021/07/18 00:17:48;;;;;;;4.10;3.70;;;20.90;1.00;;;;;;4987771;28;20426;-77
2021/07/18 00:20:16;;;;;;;5.10;4.07;;;20.80;1.00;;;;;;4965392;28;20529;-77
2021/07/18 00:22:49;;;;;;;4.43;3.87;;;20.80;1.00;;;;;;4961290;28;20445;-77
2021/07/18 00:25:15;;;;;;;4.73;3.77;;;20.80;1.00;;;;;;4961789;28;21436;-77
2021/07/18 00:27:42;;;;;;;6.10;3.50;;;20.70;1.00;;;;;;4973439;28;20482;-78
2021/07/18 00:30:11;;;;;;;5.80;3.20;;;20.70;1.00;;;;;;4962623;28;21957;-77
2021/07/18 00:32:38;;;;;;;5.10;4.40;;;20.70;1.00;;;;;;4968126;28;20437;-78
2021/07/18 00:35:06;;;;;;;4.70;3.37;;;20.60;1.00;;;;;;4966530;28;20451;-77
2021/07/18 00:37:33;;;;;;;6.20;4.07;;;20.60;1.00;;;;;;4967125;28;20425;-78
2021/07/18 00:39:59;;;;;;;5.70;4.00;;;20.60;1.00;;;;;;4957976;28;20458;-78
2021/07/18 00:42:26;;;;;;;6.27;4.30;;;20.60;1.00;;;;;;4961543;28;20455;-78
2021/07/18 00:44:52;;;;;;;5.50;3.57;;;20.60;1.00;;;;;;4957555;28;20463;-77
2021/07/18 00:47:22;;;;;;;7.80;6.97;;;20.50;1.00;;;;;;4960286;28;20468;-77
2021/07/18 00:49:49;;;;;;;6.03;4.20;;;20.50;1.00;;;;;;4978432;28;20420;-77
2021/07/18 00:52:16;;;;;;;5.40;3.80;;;20.50;1.00;;;;;;4978627;28;20414;-77
2021/07/18 00:54:43;;;;;;;8.50;4.50;;;20.40;1.00;;;;;;4977503;28;20474;-78
2021/07/18 00:57:10;;;;;;;4.10;3.57;;;20.40;1.00;;;;;;4973685;28;20460;-79
2021/07/18 00:59:37;;;;;;;5.03;4.03;;;20.40;1.00;;;;;;4978079;28;20460;-78
2021/07/18 01:02:05;;;;;;;9.73;4.23;;;20.30;1.00;;;;;;4976975;28;20485;-76
2021/07/18 01:04:33;;;;;;;4.57;3.33;;;20.30;1.00;;;;;;4975770;28;20445;-77
2021/07/18 01:06:59;;;;;;;5.27;4.00;;;20.30;1.00;;;;;;4978714;28;20711;-77
2021/07/18 01:09:26;;;;;;;6.73;4.17;;;20.20;1.00;;;;;;4971866;28;21002;-76
2021/07/18 01:11:53;;;;;;;7.83;4.03;;;20.20;1.00;;;;;;4977516;28;20450;-78
2021/07/18 01:14:20;;;;;;;5.80;3.87;;;20.20;1.00;;;;;;4972060;28;20463;-77
2021/07/18 01:16:46;;;;;;;6.23;3.80;;;20.10;1.00;;;;;;4967205;28;20444;-77
2021/07/18 01:19:14;;;;;;;6.50;4.37;;;20.10;1.00;;;;;;4960776;28;20458;-79
2021/07/18 01:21:44;;;;;;;6.93;3.77;;;20.10;1.00;;;;;;4953870;28;20441;-77
2021/07/18 01:24:14;;;;;;;6.90;3.90;;;20.10;1.00;;;;;;4955258;28;20547;-76
2021/07/18 01:26:41;;;;;;;6.87;3.70;;;20.10;1.00;;;;;;4940823;28;20933;-77
2021/07/18 01:29:08;;;;;;;4.60;3.83;;;20.00;1.00;;;;;;4951512;28;20456;-76
2021/07/18 01:31:35;;;;;;;5.17;4.07;;;20.00;1.00;;;;;;4953478;28;22414;-78
2021/07/18 01:34:01;;;;;;;6.07;4.00;;;20.00;1.00;;;;;;4934267;28;20436;-78
2021/07/18 01:36:28;;;;;;;6.20;3.97;;;20.00;1.00;;;;;;4948607;28;20461;-77
2021/07/18 01:38:55;;;;;;;7.67;4.13;;;19.90;1.00;;;;;;4952437;28;20441;-78
2021/07/18 01:41:23;;;;;;;4.23;3.60;;;19.90;1.00;;;;;;4955053;28;20441;-78
2021/07/18 01:43:49;;;;;;;8.37;4.60;;;19.90;1.00;;;;;;4954332;28;20524;-76
2021/07/18 01:46:16;;;;;;;7.53;4.00;;;19.80;1.00;;;;;;4950294;28;20445;-77
2021/07/18 01:48:43;;;;;;;7.33;3.90;;;19.80;1.00;;;;;;4952259;28;20452;-78
2021/07/18 01:51:11;;;;;;;9.13;4.73;;;19.80;1.00;;;;;;4956155;28;21132;-76
2021/07/18 01:53:38;;;;;;;8.83;4.73;;;19.70;1.00;;;;;;4956014;28;20468;-76
2021/07/18 01:56:05;;;;;;;4.77;4.23;;;19.70;1.00;;;;;;4953530;28;20473;-76
2021/07/18 01:58:33;;;;;;;5.17;4.00;;;19.70;1.00;;;;;;4962398;28;20473;-76
2021/07/18 02:01:00;;;;;;;5.03;4.03;;;19.70;1.00;;;;;;4949906;28;20848;-76
2021/07/18 02:03:26;;;;;;;5.43;4.00;;;19.60;1.00;;;;;;4934281;28;20537;-77
2021/07/18 02:05:53;;;;;;;7.23;4.07;;;19.60;1.00;;;;;;4951592;28;21360;-77
2021/07/18 02:08:20;;;;;;;6.97;4.53;;;19.60;1.00;;;;;;4979824;23;21060;-77
2021/07/18 02:10:47;;;;;;;7.00;3.70;;;19.60;1.00;;;;;;4968576;28;20448;-78
2021/07/18 02:13:16;;;;;;;4.60;3.43;;;19.50;1.00;;;;;;4970052;28;20471;-78
2021/07/18 02:15:44;;;;;;;7.37;4.00;;;19.50;1.00;;;;;;4969172;28;20459;-78
2021/07/18 02:18:11;;;;;;;6.50;3.77;;;19.50;1.00;;;;;;4962448;28;20427;-77
2021/07/18 02:20:38;;;;;;;6.63;3.40;;;19.40;1.00;;;;;;4958716;28;20625;-78
2021/07/18 02:23:04;;;;;;;4.57;3.83;;;19.40;1.00;;;;;;4963111;28;20914;-77
2021/07/18 02:25:31;;;;;;;5.63;3.73;;;19.40;1.00;;;;;;4962470;28;20469;-78
2021/07/18 02:27:58;;;;;;;5.70;4.00;;;19.40;1.00;;;;;;4955522;28;20461;-77
2021/07/18 02:30:26;;;;;;;4.93;3.60;;;19.30;1.00;;;;;;4963387;28;20458;-78
2021/07/18 02:32:54;;;;;;;5.00;3.73;;;19.30;1.00;;;;;;4958026;28;20682;-77
2021/07/18 02:35:24;;;;;;;5.70;3.40;;;19.30;1.00;;;;;;4965755;28;20425;-78
2021/07/18 02:37:51;;;;;;;6.13;3.47;;;19.30;1.00;;;;;;4959183;28;20971;-76
2021/07/18 02:40:20;;;;;;;5.23;3.57;;;19.30;1.00;;;;;;4965476;28;20460;-77
2021/07/18 02:42:47;;;;;;;8.37;4.00;;;19.20;1.00;;;;;;4963984;28;20449;-77
2021/07/18 02:45:16;;;;;;;4.30;3.40;;;19.20;1.00;;;;;;4965138;28;20453;-78
2021/07/18 02:47:43;;;;;;;5.30;3.67;;;19.20;1.00;;;;;;4969097;28;20513;-77
2021/07/18 02:50:14;;;;;;;5.67;3.93;;;19.20;1.00;;;;;;4961939;28;20534;-77
2021/07/18 02:52:41;;;;;;;7.40;4.30;;;19.10;1.00;;;;;;5031991;28;20622;-78
2021/07/18 02:55:09;;;;;;;6.90;4.10;;;19.10;1.00;;;;;;5031893;28;20480;-77
2021/07/18 02:57:35;;;;;;;4.80;3.57;;;19.10;1.00;;;;;;4960694;28;20454;-78
2021/07/18 03:00:06;;;;;;;5.63;4.00;;;19.10;1.00;;;;;;4968676;28;20453;-78
2021/07/18 03:02:32;;;;;;;4.70;4.10;;;19.00;1.00;;;;;;4959434;28;20990;-78
2021/07/18 03:04:59;;;;;;;7.23;4.47;;;19.00;1.00;;;;;;4962498;28;20459;-77
2021/07/18 03:07:27;;;;;;;6.73;5.27;;;19.00;1.00;;;;;;4965396;28;20491;-76
2021/07/18 03:09:53;;;;;;;5.67;4.33;;;18.90;1.00;;;;;;4965824;28;20559;-77
2021/07/18 03:12:20;;;;;;;4.67;4.17;;;18.90;1.00;;;;;;4960923;28;20468;-77
2021/07/18 03:14:46;;;;;;;5.00;4.50;;;18.90;1.00;;;;;;4961676;28;20978;-77
2021/07/18 03:17:13;;;;;;;6.00;4.07;;;18.90;1.00;;;;;;4964227;28;20452;-78
2021/07/18 03:19:40;;;;;;;5.33;3.80;;;18.90;1.00;;;;;;4961567;28;20451;-78
2021/07/18 03:22:06;;;;;;;4.87;3.83;;;18.80;1.00;;;;;;4959128;28;20465;-77
2021/07/18 03:24:34;;;;;;;5.70;4.47;;;18.80;1.00;;;;;;4954215;28;20983;-78
2021/07/18 03:27:01;;;;;;;6.70;4.30;;;18.80;1.00;;;;;;5040132;28;20437;-77
2021/07/18 03:29:28;;;;;;;8.57;4.23;;;18.80;1.00;;;;;;4961397;28;20458;-77
2021/07/18 03:31:55;;;;;;;6.70;4.07;;;18.80;1.00;;;;;;4961464;28;20487;-78
2021/07/18 03:34:22;;;;;;;4.60;3.80;;;18.80;1.00;;;;;;4963699;28;20435;-77
2021/07/18 03:36:48;;;;;;;7.13;4.67;;;18.80;1.00;;;;;;4958533;28;20825;-77
2021/07/18 03:39:15;;;;;;;6.33;4.53;;;18.80;1.00;;;;;;4962995;28;21351;-77
2021/07/18 03:41:43;;;;;;;4.60;3.90;;;18.80;1.00;;;;;;4962235;28;20474;-77
2021/07/18 03:44:10;;;;;;;7.60;4.50;;;18.80;1.00;;;;;;4970452;28;20450;-77
2021/07/18 03:46:36;;;;;;;8.60;4.40;;;18.80;1.00;;;;;;4960457;28;20443;-78
2021/07/18 03:49:03;;;;;;;7.43;4.50;;;18.80;1.00;;;;;;4964201;28;20951;-77
2021/07/18 03:51:30;;;;;;;5.77;4.80;;;18.80;1.00;;;;;;4964400;28;21117;-76
2021/07/18 03:53:56;;;;;;;5.30;3.60;;;18.80;1.00;;;;;;4962804;28;20489;-76
2021/07/18 03:56:23;;;;;;;6.23;4.33;;;18.80;1.00;;;;;;4963314;28;20444;-77
2021/07/18 03:58:51;;;;;;;5.40;4.20;;;18.80;1.00;;;;;;4962956;28;20785;-76
2021/07/18 04:01:18;;;;;;;5.07;4.40;;;18.80;1.00;;;;;;4960487;28;21174;-76
2021/07/18 04:03:46;;;;;;;6.63;3.60;;;18.80;1.00;;;;;;4961378;28;20467;-77
2021/07/18 04:06:13;;;;;;;6.33;4.13;;;18.70;1.00;;;;;;4962639;28;20447;-76
2021/07/18 04:08:40;;;;;;;6.27;4.30;;;18.80;1.00;;;;;;5029014;28;20470;-76
2021/07/18 04:11:07;;;;;;;10.10;4.90;;;18.80;1.00;;;;;;4965732;28;22409;-77
2021/07/18 04:13:34;;;;;;;7.23;4.93;;;18.80;1.00;;;;;;4967336;28;20551;-77
2021/07/18 04:16:02;;;;;;;7.50;5.90;;;18.80;1.00;;;;;;4959851;28;21536;-77
2021/07/18 04:18:29;;;;;;;7.13;4.37;;;18.80;1.00;;;;;;4964524;28;20460;-77
2021/07/18 04:20:55;;;;;;;7.90;4.33;;;18.80;1.00;;;;;;4963175;28;20462;-77
2021/07/18 04:23:22;;;;;;;5.50;4.17;;;18.80;1.00;;;;;;4960351;28;20459;-77
2021/07/18 04:25:48;;;;;;;4.93;4.07;;;18.80;1.00;;;;;;4967965;28;20460;-77
2021/07/18 04:28:15;;;;;;;6.23;4.10;;;18.80;1.00;;;;;;5031312;28;20447;-77
2021/07/18 04:30:42;;;;;;;6.20;4.30;;;18.80;1.00;;;;;;4964198;28;20944;-76
2021/07/18 04:33:10;;;;;;;4.20;3.70;;;18.80;1.00;;;;;;4964563;28;20475;-77
2021/07/18 04:35:38;;;;;;;4.27;3.50;;;18.80;1.00;;;;;;4964132;28;20486;-77
2021/07/18 04:38:06;;;;;;;5.37;3.60;;;18.80;1.00;;;;;;4965164;28;20479;-77
2021/07/18 04:40:34;;;;;;;10.50;5.03;;;18.80;1.00;;;;;;4960957;28;20467;-76
2021/07/18 04:43:01;;;;;;;9.43;3.80;;;18.90;1.00;;;;;;4960757;28;20455;-77
2021/07/18 04:45:28;;;;;;;6.30;4.00;;;19.00;1.00;;;;;;4964189;28;20459;-77
2021/07/18 04:47:57;;;;;;;5.00;3.87;;;19.00;1.00;;;;;;4961267;28;20913;-77
2021/07/18 04:50:26;;;;;;;5.50;3.57;;;19.00;1.00;;;;;;4961022;28;20461;-77
2021/07/18 04:52:53;;;;;;;7.57;3.30;;;19.00;1.00;;;;;;5032887;28;20463;-77
2021/07/18 04:55:20;;;;;;;4.90;3.63;;;19.10;1.00;;;;;;4964486;28;20491;-77
2021/07/18 04:57:47;;;;;;;4.73;3.83;;;19.10;1.00;;;;;;4965410;28;20457;-77
2021/07/18 05:00:15;;;;;;;7.37;5.20;;;19.10;1.00;;;;;;4973956;28;20933;-77
2021/07/18 05:02:42;;;;;;;5.17;3.60;;;19.10;1.00;;;;;;4972730;28;20449;-77
2021/07/18 05:05:10;;;;;;;5.60;4.33;;;19.20;1.00;;;;;;4967763;28;20471;-77
2021/07/18 05:07:46;;;;;;;4.63;3.60;;;19.20;1.00;;;;;;4959073;28;20456;-77
2021/07/18 05:10:13;;;;;;;4.90;3.63;;;19.20;1.00;;;;;;4960489;28;20469;-77
2021/07/18 05:12:39;;;;;;;5.07;3.70;;;19.20;1.00;;;;;;4963183;28;20459;-77
2021/07/18 05:15:07;;;;;;;6.70;3.80;;;19.30;1.00;;;;;;4963200;28;20474;-77
2021/07/18 05:17:33;;;;;;;6.53;4.30;;;19.30;1.00;;;;;;5018445;28;20478;-76
2021/07/18 05:20:00;;;;;;;5.43;3.43;;;19.40;1.00;;;;;;4960654;28;20497;-76
2021/07/18 05:22:27;;;;;;;7.47;4.27;;;19.50;1.00;;;;;;4965546;28;20520;-78
2021/07/18 05:24:55;;;;;;;6.20;4.33;;;19.60;1.00;;;;;;4965609;28;20455;-78
2021/07/18 05:27:21;;;;;;;4.87;3.33;;;19.60;1.00;;;;;;4961259;28;20452;-78
2021/07/18 05:29:48;;;;;;;7.70;4.00;;;19.60;1.00;;;;;;4962273;28;20480;-78
2021/07/18 05:32:15;;;;;;;7.80;3.40;;;19.60;1.00;;;;;;4961679;28;20564;-82
2021/07/18 05:34:43;;;;;;;4.27;3.87;;;19.70;1.00;;;;;;4987385;28;21299;-81
2021/07/18 05:37:09;;;;;;;6.93;3.83;;;19.80;1.00;;;;;;5041827;28;20526;-81
2021/07/18 05:39:40;;;;;;;5.97;3.83;;;19.80;1.00;;;;;;4975722;28;20420;-80
2021/07/18 05:42:08;;;;;;;6.43;3.43;;;19.90;1.00;;;;;;4975917;28;21711;-82
2021/07/18 05:44:35;;;;;;;5.70;3.27;;;19.90;1.00;;;;;;4971746;28;20455;-81
2021/07/18 05:47:02;;;;;;;4.17;3.00;;;20.00;1.00;;;;;;5044946;28;20604;-81
2021/07/18 05:49:29;;;;;;;6.93;3.57;;;20.00;1.00;;;;;;4972137;28;20457;-82
2021/07/18 05:51:56;;;;;;;6.30;3.50;;;20.10;1.00;;;;;;5050362;28;20438;-82
2021/07/18 05:54:23;;;;;;;3.70;3.37;;;20.10;1.00;;;;;;4972380;28;20472;-82
2021/07/18 05:56:49;;;;;;;5.87;3.60;;;20.20;1.00;;;;;;4969784;28;20661;-81
2021/07/18 05:59:17;;;;;;;6.70;3.63;;;20.30;1.00;;;;;;4970377;28;20456;-81
2021/07/18 06:01:44;;;;;;;7.20;3.20;;;20.40;1.00;;;;;;4977912;28;20496;-81
2021/07/18 06:04:11;;;;;;;7.73;5.40;;;20.50;1.00;;;;;;4973370;28;20433;-82
2021/07/18 06:06:37;;;;;;;4.70;3.40;;;20.60;1.00;;;;;;4969437;28;20471;-80
2021/07/18 06:09:04;;;;;;;5.00;3.47;;;20.70;1.00;;;;;;4971235;28;20449;-82
2021/07/18 06:11:31;;;;;;;5.53;3.53;;;20.70;1.00;;;;;;4973418;28;20521;-82
2021/07/18 06:13:58;;;;;;;6.30;3.80;;;20.80;1.00;;;;;;4970365;28;20458;-81
2021/07/18 06:16:26;;;;;;;4.40;3.20;;;20.90;1.00;;;;;;5048615;28;20430;-82
2021/07/18 06:18:53;;;;;;;4.10;3.00;;;20.90;1.00;;;;;;4969447;28;20933;-82
2021/07/18 06:21:20;;;;;;;3.53;2.80;;;21.00;1.00;;;;;;4967178;28;20468;-82
2021/07/18 06:23:46;;;;;;;5.53;3.10;;;21.00;1.00;;;;;;4975218;28;20418;-82
2021/07/18 06:26:14;;;;;;;6.20;3.10;;;21.10;1.00;;;;;;4988345;28;20416;-82
2021/07/18 06:28:40;;;;;;;6.43;2.90;;;21.10;1.00;;;;;;4971899;28;20484;-82
2021/07/18 06:31:07;;;;;;;3.70;3.40;;;21.20;1.00;;;;;;4965623;28;20463;-80
2021/07/18 06:33:35;;;;;;;4.00;2.87;;;21.20;1.00;;;;;;4968469;28;20460;-80
2021/07/18 06:36:02;;;;;;;6.90;3.27;;;21.30;1.00;;;;;;4967188;28;20759;-81
2021/07/18 06:38:28;;;;;;;3.50;3.10;;;21.40;1.00;;;;;;5040761;28;20542;-80
2021/07/18 06:40:55;;;;;;;2.93;2.60;;;21.50;1.00;;;;;;4960724;28;20455;-80
2021/07/18 06:43:22;;;;;;;4.50;2.63;;;21.50;1.00;;;;;;4972675;28;20460;-81
2021/07/18 06:45:48;;;;;;;4.93;3.33;;;21.50;1.00;;;;;;4964115;28;20471;-80
2021/07/18 06:48:15;;;;;;;4.30;2.87;;;21.50;1.00;;;;;;4966627;28;20447;-80
2021/07/18 06:50:43;;;;;;;4.13;2.87;;;21.50;1.00;;;;;;4967660;28;20475;-81
2021/07/18 06:53:10;;;;;;;4.20;3.40;;;21.70;1.00;;;;;;4962152;28;20494;-79
2021/07/18 06:55:36;;;;;;;5.37;2.70;;;21.70;1.00;;;;;;4961767;28;21277;-80
2021/07/18 06:58:03;;;;;;;3.50;2.50;;;21.80;1.00;;;;;;4963784;28;20471;-80
2021/07/18 07:00:30;;;;;;;4.43;3.07;;;21.90;1.00;;;;;;4970710;28;20458;-80
2021/07/18 07:02:56;;;;;;;4.80;3.40;;;22.00;1.00;;;;;;4961431;28;20497;-80
2021/07/18 07:05:23;;;;;;;5.20;2.90;;;22.10;1.00;;;;;;4970690;28;20467;-80
2021/07/18 07:07:51;;;;;;;3.50;3.00;;;22.20;1.00;;;;;;4965731;28;20439;-80
2021/07/18 07:10:19;;;;;;;7.60;3.07;;;22.30;1.00;;;;;;4960921;28;21355;-79
2021/07/18 07:12:47;;;;;;;5.50;2.97;;;22.30;1.00;;;;;;4964235;28;20546;-80
2021/07/18 07:15:14;;;;;;;3.00;2.80;;;22.40;1.00;;;;;;5026878;28;20485;-82
2021/07/18 07:17:41;;;;;;;3.77;3.10;;;22.50;1.00;;;;;;4969179;28;20471;-80
2021/07/18 07:20:09;;;;;;;4.20;2.73;;;22.60;1.00;;;;;;4977352;28;20535;-81
2021/07/18 07:22:36;;;;;;;4.17;3.00;;;22.60;1.00;;;;;;4975453;28;20441;-81
2021/07/18 07:25:06;;;;;;;4.10;3.40;;;22.70;1.00;;;;;;4980526;28;20468;-81
2021/07/18 07:27:34;;;;;;;2.77;2.50;;;22.70;1.00;;;;;;5055509;28;20475;-81
2021/07/18 07:30:00;;;;;;;3.80;2.70;;;22.70;1.00;;;;;;4974985;28;20430;-83
2021/07/18 07:32:27;;;;;;;4.13;2.93;;;22.80;1.00;;;;;;4970673;28;20460;-80
2021/07/18 07:34:54;;;;;;;4.70;3.10;;;22.80;1.00;;;;;;4969301;28;20449;-81
2021/07/18 07:37:24;;;;;;;3.90;2.63;;;22.90;1.00;;;;;;5038174;28;20453;-78
2021/07/18 07:39:51;;;;;;;3.87;2.43;;;22.90;1.00;;;;;;4961772;28;20466;-77
2021/07/18 07:42:18;;;;;;;5.23;4.73;;;23.00;1.00;;;;;;4964634;28;20440;-79
2021/07/18 07:44:45;;;;;;;5.23;2.87;;;23.10;1.00;;;;;;4962423;28;20432;-79
2021/07/18 07:47:12;;;;;;;5.40;2.70;;;23.20;1.00;;;;;;4972552;28;21304;-78
2021/07/18 07:49:39;;;;;;;3.57;2.83;;;23.20;1.00;;;;;;4963207;28;20467;-80
2021/07/18 07:52:06;;;;;;;3.60;2.43;;;23.30;1.00;;;;;;4959140;28;20453;-79
2021/07/18 07:54:33;;;;;;;5.17;3.03;;;23.50;1.00;;;;;;4966619;28;20498;-78
2021/07/18 07:56:59;;;;;;;8.90;3.27;;;23.60;1.00;;;;;;4963036;28;20457;-79
2021/07/18 07:59:27;;;;;;;4.10;3.07;;;23.70;1.00;;;;;;4970405;28;20471;-80
2021/07/18 08:01:54;;;;;;;2.80;2.40;;;23.70;1.00;;;;;;4969545;28;20416;-81
2021/07/18 08:04:21;;;;;;;5.10;2.97;;;23.80;1.00;;;;;;4969268;28;20472;-79
2021/07/18 08:06:47;;;;;;;3.90;3.23;;;24.00;1.00;;;;;;4960226;28;20510;-80
2021/07/18 08:09:14;;;;;;;3.30;2.80;;;24.20;1.00;;;;;;4987342;23;20472;-81
2021/07/18 08:11:44;;;;;;;4.03;2.90;;;24.30;1.00;;;;;;4990447;28;20547;-82
2021/07/18 08:14:10;;;;;;;4.30;2.80;;;24.50;1.00;;;;;;4968378;28;20498;-82
2021/07/18 08:16:39;;;;;;;3.93;2.60;;;24.70;1.00;;;;;;4967065;28;20472;-82
2021/07/18 08:19:06;;;;;;;3.50;2.67;;;24.70;1.00;;;;;;4957046;28;20491;-81
2021/07/18 08:21:33;;;;;;;3.60;3.10;;;24.70;1.00;;;;;;4946133;28;20463;-81
2021/07/18 08:24:00;;;;;;;5.03;3.30;;;24.90;1.00;;;;;;4949049;28;20416;-82
2021/07/18 08:26:26;;;;;;;4.30;2.90;;;25.00;1.00;;;;;;4952129;28;20947;-82
2021/07/18 08:28:53;;;;;;;3.30;3.00;;;25.10;1.00;;;;;;4948906;28;20479;-82
2021/07/18 08:31:19;;;;;;;3.63;2.93;;;25.20;1.00;;;;;;4947757;28;20471;-82
2021/07/18 08:33:48;;;;;;;5.83;2.90;;;25.20;1.00;;;;;;4935071;28;20610;-82
2021/07/18 08:36:14;;;;;;;6.00;2.90;;;25.20;1.00;;;;;;4947938;28;20474;-82
2021/07/18 08:38:41;;;;;;;3.37;3.00;;;25.30;1.00;;;;;;4950206;28;20481;-82
2021/07/18 08:41:08;;;;;;;3.40;3.03;;;25.30;1.00;;;;;;4951748;28;20455;-83
2021/07/18 08:43:35;;;;;;;6.43;3.27;;;25.40;1.00;;;;;;4951654;28;20431;-83
2021/07/18 08:46:03;;;;;;;4.23;3.10;;;25.40;1.00;;;;;;4954441;28;20434;-82
2021/07/18 08:48:30;;;;;;;3.10;2.47;;;25.40;1.00;;;;;;4949889;28;20480;-83
2021/07/18 08:50:59;;;;;;;4.73;2.70;;;25.50;1.00;;;;;;4948685;28;20446;-83
2021/07/18 08:53:27;;;;;;;4.30;3.50;;;25.40;1.00;;;;;;4947177;28;20445;-83
2021/07/18 08:55:55;;;;;;;6.10;2.60;;;25.50;1.00;;;;;;4947798;28;20472;-85
2021/07/18 08:58:22;;;;;;;3.27;2.57;;;25.70;1.00;;;;;;4944992;28;20442;-86
2021/07/18 09:00:49;;;;;;;3.20;2.37;;;25.60;1.00;;;;;;4950005;28;20931;-84
2021/07/18 09:03:16;;;;;;;8.50;4.90;;;25.60;1.00;;;;;;4955462;28;20930;-84
2021/07/18 09:05:43;;;;;;;6.20;3.30;;;25.80;1.00;;;;;;4948768;28;20479;-85
2021/07/18 09:08:19;;;;;;;3.70;3.20;;;26.10;1.00;;;;;;4949956;28;21086;-85
2021/07/18 09:10:47;;;;;;;7.50;6.23;;;26.00;1.00;;;;;;4948126;28;20468;-85
2021/07/18 09:13:17;;;;;;;8.67;6.33;;;26.00;1.00;;;;;;4962954;28;20495;-86
2021/07/18 09:15:45;;;;;;;7.40;5.30;;;26.10;1.00;;;;;;4952754;28;21341;-85
2021/07/18 09:18:14;;;;;;;9.93;7.70;;;26.30;1.00;;;;;;4954576;28;20475;-82
2021/07/18 09:20:42;;;;;;;6.60;4.37;;;26.40;1.00;;;;;;4943669;28;20484;-83
2021/07/18 09:23:13;;;;;;;21.73;17.27;;;26.60;1.00;;;;;;4944537;28;20450;-84
2021/07/18 09:25:41;;;;;;;9.40;5.50;;;26.80;1.00;;;;;;4952023;28;21961;-82
2021/07/18 09:28:15;;;;;;;5.80;2.73;;;26.70;1.00;;;;;;4946485;28;20486;-83
2021/07/18 09:30:42;;;;;;;3.70;3.10;;;26.70;1.00;;;;;;4942230;28;22948;-82
2021/07/18 09:33:24;;;;;;;7.27;5.50;;;26.80;1.00;;;;;;4947762;28;20460;-83
2021/07/18 09:35:51;;;;;;;4.00;3.43;;;26.90;1.00;;;;;;4942880;28;20412;-84
2021/07/18 09:38:28;;;;;;;3.70;2.60;;;27.10;1.00;;;;;;4945634;28;20499;-82
2021/07/18 09:40:57;;;;;;;4.50;2.77;;;27.20;1.00;;;;;;4948873;28;20531;-84
2021/07/18 09:43:24;;;;;;;4.83;3.30;;;27.70;1.00;;;;;;4951836;28;20441;-84
2021/07/18 09:45:56;;;;;;;4.37;3.57;;;28.80;1.00;;;;;;4947648;28;20468;-83
2021/07/18 09:48:33;;;;;;;5.50;4.30;;;30.20;1.00;;;;;;4957900;28;21254;-84
2021/07/18 09:51:07;;;;;;;4.77;2.87;;;31.70;1.00;;;;;;4931302;28;20511;-83
2021/07/18 09:53:35;;;;;;;2.70;2.30;;;32.90;1.00;;;;;;4944653;28;20420;-83
2021/07/18 09:56:04;;;;;;;7.07;4.73;;;33.80;1.00;;;;;;4949326;28;20457;-83
2021/07/18 09:58:32;;;;;;;4.00;2.50;;;34.20;1.00;;;;;;4949642;28;20855;-84
2021/07/18 10:01:00;;;;;;;2.43;1.87;;;34.30;1.00;;;;;;4951175;28;20536;-82
2021/07/18 10:03:28;;;;;;;2.50;1.97;;;34.60;1.00;;;;;;4943942;28;20433;-82
2021/07/18 10:06:09;;;;;;;4.17;1.80;;;35.00;1.00;;;;;;4946616;28;20995;-83
2021/07/18 10:08:41;;;;;;;5.33;2.20;;;35.70;1.00;;;;;;4945207;28;20477;-83
2021/07/18 10:11:09;;;;;;;2.57;2.10;;;36.30;1.00;;;;;;4950386;28;20469;-83
2021/07/18 10:13:37;;;;;;;5.27;2.50;;;36.30;1.00;;;;;;4945147;28;20476;-78
2021/07/18 10:16:05;;;;;;;2.93;2.17;;;36.30;1.00;;;;;;4933882;28;20739;-79
2021/07/18 10:18:32;;;;;;;4.40;2.30;;;36.10;1.00;;;;;;4943124;28;20523;-80
2021/07/18 10:20:59;;;;;;;5.10;1.93;;;36.50;1.00;;;;;;4935825;28;20464;-80
2021/07/18 10:23:28;;;;;;;2.60;1.83;;;36.80;1.00;;;;;;4937842;28;21349;-81
2021/07/18 10:25:59;;;;;;;4.40;2.67;;;37.10;1.00;;;;;;4932986;28;20446;-80
2021/07/18 10:28:27;;;;;;;2.83;2.10;;;36.70;1.00;;;;;;4941740;28;21281;-80
2021/07/18 10:30:58;;;;;;;2.93;2.03;;;36.10;1.00;;;;;;4940917;28;20464;-81
2021/07/18 10:33:26;;;;;;;4.33;1.97;;;36.30;1.00;;;;;;4940504;28;21026;-80
2021/07/18 10:35:55;;;;;;;2.90;2.10;;;36.90;1.00;;;;;;4934614;28;21079;-80
2021/07/18 10:38:24;;;;;;;2.30;2.07;;;36.80;1.00;;;;;;4937085;28;20489;-85
2021/07/18 10:40:53;;;;;;;4.77;2.40;;;37.10;1.00;;;;;;4938642;28;20480;-79
2021/07/18 10:43:36;;;;;;;4.67;2.40;;;37.20;1.00;;;;;;4935768;28;20425;-83
2021/07/18 10:46:04;;;;;;;3.43;2.17;;;37.80;1.00;;;;;;4930730;28;20488;-83
2021/07/18 10:48:42;;;;;;;3.80;2.10;;;38.30;1.00;;;;;;4948621;28;20446;-82
2021/07/18 10:51:09;;;;;;;3.77;2.20;;;37.40;1.00;;;;;;4948248;28;20441;-83
2021/07/18 10:53:37;;;;;;;4.30;2.50;;;36.90;1.00;;;;;;4945610;28;20958;-83
2021/07/18 10:56:05;;;;;;;5.20;3.07;;;36.80;1.00;;;;;;4944965;28;20445;-83
2021/07/18 10:58:53;;;;;;;6.40;2.50;;;36.90;1.00;;;;;;4945237;28;20441;-83
2021/07/18 11:01:32;;;;;;;2.80;2.17;;;36.70;1.00;;;;;;4948274;28;20499;-83
2021/07/18 11:03:59;;;;;;;3.20;2.20;;;37.30;1.00;;;;;;4961737;28;20473;-84
2021/07/18 11:06:28;;;;;;;2.70;2.13;;;38.00;1.00;;;;;;4939302;28;20414;-82
2021/07/18 11:09:10;;;;;;;5.03;2.00;;;37.80;1.00;;;;;;4951313;28;20985;-82
2021/07/18 11:11:38;;;;;;;2.40;2.13;;;36.10;1.00;;;;;;4950061;28;20505;-83
2021/07/18 11:14:40;;;;;;;3.57;2.70;;;35.40;1.00;;;;;;4953122;28;20480;-82
2021/07/18 11:17:10;;;;;;;4.40;2.60;;;35.60;1.00;;;;;;4957648;28;20559;-84
2021/07/18 11:20:00;;;;;;;3.33;2.03;;;35.90;1.00;;;;;;4951134;28;20428;-83
2021/07/18 11:22:56;;;;;;;2.40;1.77;;;36.80;1.00;;;;;;4959034;28;20461;-83
2021/07/18 11:25:40;;;;;;;3.67;2.00;;;36.90;1.00;;;;;;4945845;28;20480;-80
2021/07/18 11:28:44;;;;;;;3.00;1.93;;;35.70;1.00;;;;;;4952424;28;20445;-83
2021/07/18 11:31:25;;;;;;;2.47;1.90;;;35.10;1.00;;;;;;4949164;28;20898;-82
2021/07/18 11:33:54;;;;;;;3.20;2.30;;;35.80;1.00;;;;;;4953253;28;20480;-82
2021/07/18 11:36:23;;;;;;;3.20;2.00;;;36.30;1.00;;;;;;4949393;28;20472;-82
2021/07/18 11:38:51;;;;;;;2.47;2.03;;;36.50;1.00;;;;;;4956018;28;20441;-83
2021/07/18 11:41:19;;;;;;;2.53;2.03;;;35.60;1.00;;;;;;4951409;28;20464;-83
2021/07/18 11:43:47;;;;;;;3.30;2.40;;;35.10;1.00;;;;;;4946262;28;20423;-84
2021/07/18 11:46:14;;;;;;;3.60;2.80;;;35.70;1.00;;;;;;4949633;28;20519;-82
2021/07/18 11:48:43;;;;;;;5.10;3.53;;;35.70;1.00;;;;;;4948180;28;20444;-83
2021/07/18 11:51:14;;;;;;;3.90;2.60;;;35.30;1.00;;;;;;4947554;28;20483;-83
2021/07/18 11:53:45;;;;;;;3.67;2.20;;;34.50;1.00;;;;;;4945305;28;20834;-83
2021/07/18 11:56:23;;;;;;;2.40;2.00;;;35.00;1.00;;;;;;4953860;28;20642;-83
2021/07/18 11:58:50;;;;;;;3.57;2.27;;;36.40;1.00;;;;;;4944845;28;20433;-82
2021/07/18 12:01:22;;;;;;;3.40;2.40;;;37.60;1.00;;;;;;4948171;28;20470;-82
2021/07/18 12:03:50;;;;;;;2.60;2.07;;;38.80;1.00;;;;;;4944990;28;20477;-82
2021/07/18 12:06:18;;;;;;;4.30;2.33;;;39.20;1.00;;;;;;4948429;28;20550;-82
2021/07/18 12:08:45;;;;;;;3.77;1.90;;;38.10;1.00;;;;;;4948870;28;20441;-82
2021/07/18 12:11:13;;;;;;;2.80;2.30;;;37.80;1.00;;;;;;4947056;28;20515;-82
2021/07/18 12:13:44;;;;;;;2.20;1.70;;;38.80;1.00;;;;;;4946057;28;20425;-81
2021/07/18 12:16:11;;;;;;;3.00;1.73;;;39.80;1.00;;;;;;4949928;28;20464;-82
2021/07/18 12:18:45;;;;;;;2.73;1.70;;;40.30;1.00;;;;;;4946099;28;21056;-83
2021/07/18 12:21:19;;;;;;;4.07;1.80;;;39.50;1.00;;;;;;4951826;28;20484;-82
2021/07/18 12:24:07;;;;;;;4.33;2.53;;;39.40;1.00;;;;;;4955873;28;21432;-82
2021/07/18 12:26:33;;;;;;;3.00;1.67;;;40.10;1.00;;;;;;4944259;28;20489;-80
2021/07/18 12:29:03;;;;;;;2.90;2.00;;;40.80;1.00;;;;;;4939689;28;20509;-80
2021/07/18 12:31:30;;;;;;;2.43;1.70;;;41.20;1.00;;;;;;4938802;28;20455;-79
2021/07/18 12:33:57;;;;;;;2.50;2.17;;;40.90;1.00;;;;;;4944004;28;21009;-80
2021/07/18 12:36:25;;;;;;;2.10;1.90;;;39.20;1.00;;;;;;4950053;28;20548;-77
2021/07/18 12:38:51;;;;;;;2.67;2.10;;;37.90;1.00;;;;;;4954544;28;20934;-80
2021/07/18 12:41:18;;;;;;;2.83;2.07;;;37.70;1.00;;;;;;4945268;28;20465;-80
2021/07/18 12:43:45;;;;;;;2.80;1.80;;;37.50;1.00;;;;;;4948323;28;21021;-79
2021/07/18 12:46:13;;;;;;;2.50;2.30;;;36.80;1.00;;;;;;4946521;28;20532;-80
2021/07/18 12:48:39;;;;;;;3.30;2.10;;;36.00;1.00;;;;;;4948800;28;20814;-80
2021/07/18 12:51:14;;;;;;;3.10;1.93;;;36.50;1.00;;;;;;4953319;28;20493;-77
2021/07/18 12:53:43;;;;;;;4.40;2.70;;;37.40;1.00;;;;;;4947131;28;20424;-78
2021/07/18 12:56:11;;;;;;;2.70;2.03;;;37.70;1.00;;;;;;4927919;28;20443;-78
2021/07/18 12:58:42;;;;;;;3.10;2.03;;;38.00;1.00;;;;;;4949017;28;20466;-77
2021/07/18 13:01:12;;;;;;;2.57;1.63;;;39.00;1.00;;;;;;4957904;28;20421;-79
2021/07/18 13:03:40;;;;;;;3.33;1.93;;;38.70;1.00;;;;;;4949703;28;20965;-76